sensor_id;sensor_type;location;lat;lon;timestamp;pressure;altitude;pressure_sealevel;temperature;humidity
35519;BME280;21627;48.216;16.482;2024-02-14T00:01:13;100414.00;;;2.70;100.00
35519;BME280;21627;48.216;16.482;2024-02-14T00:03:40;100409.56;;;2.66;100.00
35519;BME280;21627;48.216;16.482;2024-02-14T00:06:07;100411.16;;;2.64;100.00
35519;BME280;21627;48.216;16.482;2024-02-14T00:08:35;100424.94;;;2.67;100.00
35519;BME280;21627;48.216;16.482;2024-02-14T00:11:02;100414.53;;;2.63;100.00
35519;BME280;21627;48.216;16.482;2024-02-14T00:13:30;100422.31;;;2.66;100.00
35519;BME280;21627;48.216;16.482;2024-02-14T00:15:58;100416.38;;;2.67;100.00
35519;BME280;21627;48.216;16.482;2024-02-14T00:18:25;100416.16;;;2.60;100.00
35519;BME280;21627;48.216;16.482;2024-02-14T00:20:54;100422.19;;;2.63;100.00
35519;BME280;21627;48.216;16.482;2024-02-14T00:23:21;100421.25;;;2.60;100.00
35519;BME280;21627;48.216;16.482;2024-02-14T00:25:48;100428.84;;;2.59;100.00
35519;BME280;21627;48.216;16.482;2024-02-14T00:28:15;100422.66;;;2.54;100.00
35519;BME280;21627;48.216;16.482;2024-02-14T00:30:43;100428.09;;;2.62;100.00
35519;BME280;21627;48.216;16.482;2024-02-14T00:33:10;100425.50;;;2.60;100.00
35519;BME280;21627;48.216;16.482;2024-02-14T00:35:37;100427.09;;;2.58;100.00
35519;BME280;21627;48.216;16.482;2024-02-14T00:38:05;100425.28;;;2.55;100.00
35519;BME280;21627;48.216;16.482;2024-02-14T00:40:32;100427.75;;;2.54;100.00
35519;BME280;21627;48.216;16.482;2024-02-14T00:42:59;100423.28;;;2.48;100.00
35519;BME280;21627;48.216;16.482;2024-02-14T00:45:26;100427.72;;;2.52;100.00
35519;BME280;21627;48.216;16.482;2024-02-14T00:47:53;100436.91;;;2.49;100.00
35519;BME280;21627;48.216;16.482;2024-02-14T00:50:20;100434.22;;;2.46;100.00
35519;BME280;21627;48.216;16.482;2024-02-14T00:52:47;100435.03;;;2.45;100.00
35519;BME280;21627;48.216;16.482;2024-02-14T00:55:15;100424.63;;;2.40;100.00
35519;BME280;21627;48.216;16.482;2024-02-14T00:57:42;100431.22;;;2.35;100.00
35519;BME280;21627;48.216;16.482;2024-02-14T01:00:09;100426.50;;;2.25;100.00
35519;BME280;21627;48.216;16.482;2024-02-14T01:02:37;100447.06;;;2.28;100.00
35519;BME280;21627;48.216;16.482;2024-02-14T01:05:04;100443.28;;;2.20;100.00
35519;BME280;21627;48.216;16.482;2024-02-14T01:07:32;100443.75;;;2.11;100.00
35519;BME280;21627;48.216;16.482;2024-02-14T01:09:59;100444.56;;;2.10;100.00
35519;BME280;21627;48.216;16.482;2024-02-14T01:12:26;100439.84;;;2.00;100.00
35519;BME280;21627;48.216;16.482;2024-02-14T01:14:54;100433.50;;;1.91;100.00
35519;BME280;21627;48.216;16.482;2024-02-14T01:17:21;100438.47;;;1.88;100.00
35519;BME280;21627;48.216;16.482;2024-02-14T01:19:48;100436.50;;;1.83;100.00
35519;BME280;21627;48.216;16.482;2024-02-14T01:22:16;100433.75;;;1.78;100.00
35519;BME280;21627;48.216;16.482;2024-02-14T01:24:43;100436.97;;;1.74;100.00
35519;BME280;21627;48.216;16.482;2024-02-14T01:27:11;100432.44;;;1.68;100.00
35519;BME280;21627;48.216;16.482;2024-02-14T01:29:38;100434.84;;;1.65;100.00
35519;BME280;21627;48.216;16.482;2024-02-14T01:32:05;100435.38;;;1.58;100.00
35519;BME280;21627;48.216;16.482;2024-02-14T01:34:33;100423.13;;;1.51;100.00
35519;BME280;21627;48.216;16.482;2024-02-14T01:37:01;100426.28;;;1.45;100.00
35519;BME280;21627;48.216;16.482;2024-02-14T01:39:28;100430.72;;;1.49;100.00
35519;BME280;21627;48.216;16.482;2024-02-14T01:41:55;100427.00;;;1.43;100.00
35519;BME280;21627;48.216;16.482;2024-02-14T01:44:22;100426.78;;;1.38;100.00
35519;BME280;21627;48.216;16.482;2024-02-14T01:46:49;100417.25;;;1.34;100.00
35519;BME280;21627;48.216;16.482;2024-02-14T01:49:17;100426.63;;;1.35;100.00
35519;BME280;21627;48.216;16.482;2024-02-14T01:51:47;100433.09;;;1.28;100.00
35519;BME280;21627;48.216;16.482;2024-02-14T01:54:15;100426.06;;;1.23;100.00
35519;BME280;21627;48.216;16.482;2024-02-14T01:56:45;100418.00;;;1.14;100.00
35519;BME280;21627;48.216;16.482;2024-02-14T01:59:13;100422.41;;;1.18;100.00
35519;BME280;21627;48.216;16.482;2024-02-14T02:01:42;100412.22;;;1.18;100.00
35519;BME280;21627;48.216;16.482;2024-02-14T02:04:10;100420.44;;;1.12;100.00
35519;BME280;21627;48.216;16.482;2024-02-14T02:06:38;100407.44;;;1.06;100.00
35519;BME280;21627;48.216;16.482;2024-02-14T02:09:05;100406.53;;;1.05;100.00
35519;BME280;21627;48.216;16.482;2024-02-14T02:11:50;100412.91;;;1.14;100.00
35519;BME280;21627;48.216;16.482;2024-02-14T02:14:18;100406.75;;;1.10;100.00
35519;BME280;21627;48.216;16.482;2024-02-14T02:16:46;100413.75;;;1.14;100.00
35519;BME280;21627;48.216;16.482;2024-02-14T02:19:13;100406.75;;;1.10;100.00
35519;BME280;21627;48.216;16.482;2024-02-14T02:21:42;100407.44;;;1.06;100.00
35519;BME280;21627;48.216;16.482;2024-02-14T02:24:13;100404.88;;;1.06;100.00
35519;BME280;21627;48.216;16.482;2024-02-14T02:26:40;100402.97;;;1.02;100.00
35519;BME280;21627;48.216;16.482;2024-02-14T02:29:07;100408.88;;;1.01;100.00
35519;BME280;21627;48.216;16.482;2024-02-14T02:31:34;100399.97;;;0.93;100.00
35519;BME280;21627;48.216;16.482;2024-02-14T02:34:01;100423.03;;;0.96;100.00
35519;BME280;21627;48.216;16.482;2024-02-14T02:36:29;100409.00;;;0.86;100.00
35519;BME280;21627;48.216;16.482;2024-02-14T02:38:57;100418.38;;;0.87;100.00
35519;BME280;21627;48.216;16.482;2024-02-14T02:41:25;100420.53;;;0.79;100.00
35519;BME280;21627;48.216;16.482;2024-02-14T02:43:52;100424.03;;;0.81;100.00
35519;BME280;21627;48.216;16.482;2024-02-14T02:46:21;100424.81;;;0.80;100.00
35519;BME280;21627;48.216;16.482;2024-02-14T02:48:49;100428.81;;;0.75;100.00
35519;BME280;21627;48.216;16.482;2024-02-14T02:51:18;100419.91;;;0.67;100.00
35519;BME280;21627;48.216;16.482;2024-02-14T02:53:45;100435.19;;;0.67;100.00
35519;BME280;21627;48.216;16.482;2024-02-14T02:56:12;100432.59;;;0.66;100.00
35519;BME280;21627;48.216;16.482;2024-02-14T02:58:41;100438.53;;;0.66;100.00
35519;BME280;21627;48.216;16.482;2024-02-14T03:01:11;100423.59;;;0.56;100.00
35519;BME280;21627;48.216;16.482;2024-02-14T03:03:39;100440.69;;;0.58;100.00
35519;BME280;21627;48.216;16.482;2024-02-14T03:06:08;100435.44;;;0.55;100.00
35519;BME280;21627;48.216;16.482;2024-02-14T03:08:35;100437.25;;;0.58;100.00
35519;BME280;21627;48.216;16.482;2024-02-14T03:11:06;100431.72;;;0.49;100.00
35519;BME280;21627;48.216;16.482;2024-02-14T03:13:33;100444.28;;;0.46;100.00
35519;BME280;21627;48.216;16.482;2024-02-14T03:16:02;100439.13;;;0.44;100.00
35519;BME280;21627;48.216;16.482;2024-02-14T03:18:31;100450.00;;;0.41;100.00
35519;BME280;21627;48.216;16.482;2024-02-14T03:20:59;100444.19;;;0.44;100.00
35519;BME280;21627;48.216;16.482;2024-02-14T03:23:26;100451.13;;;0.47;100.00
35519;BME280;21627;48.216;16.482;2024-02-14T03:25:55;100454.28;;;0.42;100.00
35519;BME280;21627;48.216;16.482;2024-02-14T03:28:22;100449.69;;;0.35;100.00
35519;BME280;21627;48.216;16.482;2024-02-14T03:30:49;100458.91;;;0.33;100.00
35519;BME280;21627;48.216;16.482;2024-02-14T03:33:16;100450.16;;;0.28;100.00
35519;BME280;21627;48.216;16.482;2024-02-14T03:35:43;100453.34;;;0.24;100.00
35519;BME280;21627;48.216;16.482;2024-02-14T03:38:10;100460.88;;;0.22;100.00
35519;BME280;21627;48.216;16.482;2024-02-14T03:40:38;100456.44;;;0.18;100.00
35519;BME280;21627;48.216;16.482;2024-02-14T03:43:05;100452.31;;;0.20;100.00
35519;BME280;21627;48.216;16.482;2024-02-14T03:45:32;100455.38;;;0.15;100.00
35519;BME280;21627;48.216;16.482;2024-02-14T03:47:59;100457.88;;;0.13;100.00
35519;BME280;21627;48.216;16.482;2024-02-14T03:50:26;100459.44;;;0.11;100.00
35519;BME280;21627;48.216;16.482;2024-02-14T03:52:54;100460.97;;;0.08;100.00
35519;BME280;21627;48.216;16.482;2024-02-14T03:55:21;100452.22;;;0.03;100.00
35519;BME280;21627;48.216;16.482;2024-02-14T03:57:50;100456.66;;;0.07;100.00
35519;BME280;21627;48.216;16.482;2024-02-14T04:00:18;100462.44;;;0.04;100.00
35519;BME280;21627;48.216;16.482;2024-02-14T04:02:45;100458.00;;;0.00;100.00
35519;BME280;21627;48.216;16.482;2024-02-14T04:05:15;100466.81;;;0.07;100.00
35519;BME280;21627;48.216;16.482;2024-02-14T04:07:43;100461.75;;;0.07;100.00
35519;BME280;21627;48.216;16.482;2024-02-14T04:10:16;100466.66;;;0.04;100.00
35519;BME280;21627;48.216;16.482;2024-02-14T04:12:43;100472.78;;;0.07;100.00
35519;BME280;21627;48.216;16.482;2024-02-14T04:15:10;100467.63;;;0.06;100.00
35519;BME280;21627;48.216;16.482;2024-02-14T04:17:41;100467.63;;;0.06;100.00
35519;BME280;21627;48.216;16.482;2024-02-14T04:20:09;100465.00;;;0.04;100.00
35519;BME280;21627;48.216;16.482;2024-02-14T04:22:36;100469.31;;;0.05;100.00
35519;BME280;21627;48.216;16.482;2024-02-14T04:25:04;100468.97;;;-0.01;100.00
35519;BME280;21627;48.216;16.482;2024-02-14T04:27:32;100464.84;;;0.01;100.00
35519;BME280;21627;48.216;16.482;2024-02-14T04:30:01;100453.38;;;-0.07;100.00
35519;BME280;21627;48.216;16.482;2024-02-14T04:32:29;100467.47;;;0.03;100.00
35519;BME280;21627;48.216;16.482;2024-02-14T04:34:56;100463.97;;;0.01;100.00
35519;BME280;21627;48.216;16.482;2024-02-14T04:37:24;100462.03;;;-0.04;100.00
35519;BME280;21627;48.216;16.482;2024-02-14T04:39:51;100465.34;;;0.10;100.00
35519;BME280;21627;48.216;16.482;2024-02-14T04:42:18;100456.09;;;0.12;100.00
35519;BME280;21627;48.216;16.482;2024-02-14T04:44:45;100461.38;;;0.15;100.00
35519;BME280;21627;48.216;16.482;2024-02-14T04:47:13;100455.38;;;0.15;100.00
35519;BME280;21627;48.216;16.482;2024-02-14T04:49:40;100461.19;;;0.12;100.00
35519;BME280;21627;48.216;16.482;2024-02-14T04:52:08;100457.78;;;0.12;100.00
35519;BME280;21627;48.216;16.482;2024-02-14T04:54:35;100462.69;;;0.09;100.00
35519;BME280;21627;48.216;16.482;2024-02-14T04:57:02;100455.53;;;0.02;100.00
35519;BME280;21627;48.216;16.482;2024-02-14T04:59:31;100462.44;;;0.04;100.00
35519;BME280;21627;48.216;16.482;2024-02-14T05:01:58;100463.97;;;0.01;100.00
35519;BME280;21627;48.216;16.482;2024-02-14T05:04:26;100459.25;;;-0.08;100.00
35519;BME280;21627;48.216;16.482;2024-02-14T05:06:53;100477.13;;;-0.07;100.00
35519;BME280;21627;48.216;16.482;2024-02-14T05:09:25;100474.50;;;-0.08;100.00
35519;BME280;21627;48.216;16.482;2024-02-14T05:11:52;100481.25;;;-0.09;100.00
35519;BME280;21627;48.216;16.482;2024-02-14T05:14:20;100482.66;;;-0.14;100.00
35519;BME280;21627;48.216;16.482;2024-02-14T05:16:47;100484.00;;;-0.20;100.00
35519;BME280;21627;48.216;16.482;2024-02-14T05:19:14;100486.47;;;-0.22;100.00
35519;BME280;21627;48.216;16.482;2024-02-14T05:21:41;100481.03;;;-0.28;100.00
35519;BME280;21627;48.216;16.482;2024-02-14T05:24:08;100488.84;;;-0.25;100.00
35519;BME280;21627;48.216;16.482;2024-02-14T05:26:36;100476.75;;;-0.29;100.00
35519;BME280;21627;48.216;16.482;2024-02-14T05:29:03;100486.91;;;-0.29;100.00
35519;BME280;21627;48.216;16.482;2024-02-14T05:31:44;100486.06;;;-0.30;100.00
35519;BME280;21627;48.216;16.482;2024-02-14T05:34:12;100496.97;;;-0.31;100.00
35519;BME280;21627;48.216;16.482;2024-02-14T05:36:40;100502.78;;;-0.33;100.00
35519;BME280;21627;48.216;16.482;2024-02-14T05:39:07;100501.91;;;-0.34;100.00
35519;BME280;21627;48.216;16.482;2024-02-14T05:41:35;100506.97;;;-0.34;100.00
35519;BME280;21627;48.216;16.482;2024-02-14T05:44:03;100505.31;;;-0.33;100.00
35519;BME280;21627;48.216;16.482;2024-02-14T05:46:30;100496.91;;;-0.32;100.00
35519;BME280;21627;48.216;16.482;2024-02-14T05:48:58;100509.06;;;-0.27;100.00
35519;BME280;21627;48.216;16.482;2024-02-14T05:51:26;100512.50;;;-0.26;100.00
35519;BME280;21627;48.216;16.482;2024-02-14T05:53:53;100515.91;;;-0.26;100.00
35519;BME280;21627;48.216;16.482;2024-02-14T05:56:21;100514.31;;;-0.24;100.00
35519;BME280;21627;48.216;16.482;2024-02-14T05:58:48;100514.25;;;-0.25;100.00
35519;BME280;21627;48.216;16.482;2024-02-14T06:01:15;100512.59;;;-0.25;100.00
35519;BME280;21627;48.216;16.482;2024-02-14T06:03:42;100510.81;;;-0.26;100.00
35519;BME280;21627;48.216;16.482;2024-02-14T06:06:12;100516.97;;;-0.22;100.00
35519;BME280;21627;48.216;16.482;2024-02-14T06:08:39;100525.56;;;-0.20;100.00
35519;BME280;21627;48.216;16.482;2024-02-14T06:11:06;100529.13;;;-0.16;100.00
35519;BME280;21627;48.216;16.482;2024-02-14T06:13:34;100522.31;;;-0.17;100.00
35519;BME280;21627;48.216;16.482;2024-02-14T06:16:03;100523.06;;;-0.18;100.00
35519;BME280;21627;48.216;16.482;2024-02-14T06:18:30;100533.75;;;-0.09;100.00
35519;BME280;21627;48.216;16.482;2024-02-14T06:20:57;100533.81;;;-0.08;100.00
35519;BME280;21627;48.216;16.482;2024-02-14T06:23:24;100526.03;;;-0.11;100.00
35519;BME280;21627;48.216;16.482;2024-02-14T06:25:51;100534.09;;;-0.03;100.00
35519;BME280;21627;48.216;16.482;2024-02-14T06:28:20;100535.75;;;-0.04;100.00
35519;BME280;21627;48.216;16.482;2024-02-14T06:30:47;100531.72;;;0.00;100.00
35519;BME280;21627;48.216;16.482;2024-02-14T06:33:14;100537.03;;;0.05;100.00
35519;BME280;21627;48.216;16.482;2024-02-14T06:35:42;100546.59;;;0.09;100.00
35519;BME280;21627;48.216;16.482;2024-02-14T06:38:09;100553.69;;;0.14;100.00
35519;BME280;21627;48.216;16.482;2024-02-14T06:40:36;100536.69;;;0.13;100.00
35519;BME280;21627;48.216;16.482;2024-02-14T06:43:04;100544.63;;;0.19;100.00
35519;BME280;21627;48.216;16.482;2024-02-14T06:45:33;100554.59;;;0.31;100.00
35519;BME280;21627;48.216;16.482;2024-02-14T06:48:00;100557.25;;;0.33;100.00
35519;BME280;21627;48.216;16.482;2024-02-14T06:50:28;100558.38;;;0.38;100.00
35519;BME280;21627;48.216;16.482;2024-02-14T06:52:56;100557.97;;;0.47;100.00
35519;BME280;21627;48.216;16.482;2024-02-14T06:55:28;100548.75;;;0.49;100.00
35519;BME280;21627;48.216;16.482;2024-02-14T06:57:56;100566.25;;;0.59;100.00
35519;BME280;21627;48.216;16.482;2024-02-14T07:00:23;100565.44;;;0.60;100.00
35519;BME280;21627;48.216;16.482;2024-02-14T07:02:51;100565.78;;;0.66;100.00
35519;BME280;21627;48.216;16.482;2024-02-14T07:05:18;100565.47;;;0.76;100.00
35519;BME280;21627;48.216;16.482;2024-02-14T07:07:45;100570.81;;;0.81;100.00
35519;BME280;21627;48.216;16.482;2024-02-14T07:10:12;100565.88;;;0.84;100.00
35519;BME280;21627;48.216;16.482;2024-02-14T07:12:39;100568.88;;;0.93;100.00
35519;BME280;21627;48.216;16.482;2024-02-14T07:15:07;100571.03;;;1.02;100.00
35519;BME280;21627;48.216;16.482;2024-02-14T07:17:35;100563.69;;;1.08;100.00
35519;BME280;21627;48.216;16.482;2024-02-14T07:20:03;100565.19;;;1.21;100.00
35519;BME280;21627;48.216;16.482;2024-02-14T07:22:30;100559.69;;;1.29;100.00
35519;BME280;21627;48.216;16.482;2024-02-14T07:24:58;100572.38;;;1.46;100.00
35519;BME280;21627;48.216;16.482;2024-02-14T07:27:25;100571.91;;;1.53;100.00
35519;BME280;21627;48.216;16.482;2024-02-14T07:29:52;100573.22;;;1.63;100.00
35519;BME280;21627;48.216;16.482;2024-02-14T07:32:20;100574.41;;;1.69;100.00
35519;BME280;21627;48.216;16.482;2024-02-14T07:34:47;100571.50;;;1.80;100.00
35519;BME280;21627;48.216;16.482;2024-02-14T07:37:15;100570.09;;;1.86;100.00
35519;BME280;21627;48.216;16.482;2024-02-14T07:39:45;100572.53;;;2.01;100.00
35519;BME280;21627;48.216;16.482;2024-02-14T07:42:13;100576.34;;;2.09;100.00
35519;BME280;21627;48.216;16.482;2024-02-14T07:44:40;100565.59;;;2.16;100.00
35519;BME280;21627;48.216;16.482;2024-02-14T07:47:08;100569.00;;;2.35;100.00
35519;BME280;21627;48.216;16.482;2024-02-14T07:49:35;100580.66;;;2.48;100.00
35519;BME280;21627;48.216;16.482;2024-02-14T07:52:03;100568.72;;;2.66;100.00
35519;BME280;21627;48.216;16.482;2024-02-14T07:54:30;100565.16;;;2.82;100.00
35519;BME280;21627;48.216;16.482;2024-02-14T07:56:58;100570.06;;;2.97;100.00
35519;BME280;21627;48.216;16.482;2024-02-14T07:59:25;100563.88;;;3.11;100.00
35519;BME280;21627;48.216;16.482;2024-02-14T08:01:54;100563.88;;;3.31;100.00
35519;BME280;21627;48.216;16.482;2024-02-14T08:04:21;100572.59;;;3.57;100.00
35519;BME280;21627;48.216;16.482;2024-02-14T08:06:49;100576.66;;;3.73;100.00
35519;BME280;21627;48.216;16.482;2024-02-14T08:09:16;100575.41;;;3.84;100.00
35519;BME280;21627;48.216;16.482;2024-02-14T08:11:43;100562.00;;;3.89;100.00
35519;BME280;21627;48.216;16.482;2024-02-14T08:14:11;100584.75;;;4.04;100.00
35519;BME280;21627;48.216;16.482;2024-02-14T08:16:39;100579.38;;;4.19;100.00
35519;BME280;21627;48.216;16.482;2024-02-14T08:19:06;100580.59;;;4.29;100.00
35519;BME280;21627;48.216;16.482;2024-02-14T08:21:35;100578.91;;;4.52;100.00
35519;BME280;21627;48.216;16.482;2024-02-14T08:24:03;100581.41;;;4.50;100.00
35519;BME280;21627;48.216;16.482;2024-02-14T08:26:30;100578.38;;;4.61;100.00
35519;BME280;21627;48.216;16.482;2024-02-14T08:28:59;100571.13;;;4.71;100.00
35519;BME280;21627;48.216;16.482;2024-02-14T08:31:27;100571.50;;;4.82;100.00
35519;BME280;21627;48.216;16.482;2024-02-14T08:33:55;100570.31;;;4.96;100.00
35519;BME280;21627;48.216;16.482;2024-02-14T08:36:22;100562.88;;;5.04;100.00
35519;BME280;21627;48.216;16.482;2024-02-14T08:38:50;100569.25;;;5.15;100.00
35519;BME280;21627;48.216;16.482;2024-02-14T08:41:17;100574.56;;;5.21;100.00
35519;BME280;21627;48.216;16.482;2024-02-14T08:43:45;100562.09;;;5.31;100.00
35519;BME280;21627;48.216;16.482;2024-02-14T08:46:14;100564.81;;;5.35;100.00
35519;BME280;21627;48.216;16.482;2024-02-14T08:48:42;100555.16;;;5.28;100.00
35519;BME280;21627;48.216;16.482;2024-02-14T08:51:16;100571.63;;;5.35;100.00
35519;BME280;21627;48.216;16.482;2024-02-14T08:53:44;100558.25;;;5.43;100.00
35519;BME280;21627;48.216;16.482;2024-02-14T08:56:12;100560.25;;;5.52;100.00
35519;BME280;21627;48.216;16.482;2024-02-14T08:58:41;100558.28;;;5.71;100.00
35519;BME280;21627;48.216;16.482;2024-02-14T09:01:08;100549.66;;;5.94;100.00
35519;BME280;21627;48.216;16.482;2024-02-14T09:03:44;100552.03;;;6.15;100.00
35519;BME280;21627;48.216;16.482;2024-02-14T09:06:17;100549.16;;;6.33;100.00
35519;BME280;21627;48.216;16.482;2024-02-14T09:08:45;100554.09;;;6.56;100.00
35519;BME280;21627;48.216;16.482;2024-02-14T09:11:13;100557.53;;;6.86;100.00
35519;BME280;21627;48.216;16.482;2024-02-14T09:13:41;100556.31;;;7.05;100.00
35519;BME280;21627;48.216;16.482;2024-02-14T09:16:09;100551.72;;;7.25;100.00
35519;BME280;21627;48.216;16.482;2024-02-14T09:18:37;100568.47;;;7.43;100.00
35519;BME280;21627;48.216;16.482;2024-02-14T09:21:05;100552.53;;;7.56;100.00
35519;BME280;21627;48.216;16.482;2024-02-14T09:23:33;100546.03;;;7.72;100.00
35519;BME280;21627;48.216;16.482;2024-02-14T09:26:01;100552.56;;;7.94;98.18
35519;BME280;21627;48.216;16.482;2024-02-14T09:28:29;100552.03;;;8.07;95.77
35519;BME280;21627;48.216;16.482;2024-02-14T09:30:56;100531.44;;;8.09;97.54
35519;BME280;21627;48.216;16.482;2024-02-14T09:33:24;100538.78;;;8.30;87.74
35519;BME280;21627;48.216;16.482;2024-02-14T09:35:52;100542.34;;;8.35;84.58
35519;BME280;21627;48.216;16.482;2024-02-14T09:38:20;100544.56;;;8.59;85.20
35519;BME280;21627;48.216;16.482;2024-02-14T09:40:50;100544.06;;;8.77;82.89
35519;BME280;21627;48.216;16.482;2024-02-14T09:43:38;100548.47;;;8.81;83.70
35519;BME280;21627;48.216;16.482;2024-02-14T09:46:07;100545.28;;;8.94;83.52
35519;BME280;21627;48.216;16.482;2024-02-14T09:48:36;100547.56;;;9.24;79.05
35519;BME280;21627;48.216;16.482;2024-02-14T09:51:05;100549.13;;;9.16;77.93
35519;BME280;21627;48.216;16.482;2024-02-14T09:53:33;100544.25;;;9.30;80.93
35519;BME280;21627;48.216;16.482;2024-02-14T09:56:02;100550.66;;;9.53;79.67
35519;BME280;21627;48.216;16.482;2024-02-14T09:58:31;100550.09;;;9.71;79.73
35519;BME280;21627;48.216;16.482;2024-02-14T10:00:58;100550.31;;;9.84;78.72
35519;BME280;21627;48.216;16.482;2024-02-14T10:03:26;100557.88;;;9.73;77.22
35519;BME280;21627;48.216;16.482;2024-02-14T10:05:53;100550.25;;;9.82;75.17
35519;BME280;21627;48.216;16.482;2024-02-14T10:08:22;100552.28;;;10.02;74.47
35519;BME280;21627;48.216;16.482;2024-02-14T10:10:49;100554.75;;;9.94;71.34
35519;BME280;21627;48.216;16.482;2024-02-14T10:13:19;100542.66;;;9.91;70.55
35519;BME280;21627;48.216;16.482;2024-02-14T10:15:47;100544.50;;;9.99;71.62
35519;BME280;21627;48.216;16.482;2024-02-14T10:18:15;100536.88;;;10.06;72.96
35519;BME280;21627;48.216;16.482;2024-02-14T10:20:57;100532.81;;;10.25;70.55
35519;BME280;21627;48.216;16.482;2024-02-14T10:23:24;100533.09;;;10.42;68.49
35519;BME280;21627;48.216;16.482;2024-02-14T10:25:54;100532.50;;;10.65;69.15
35519;BME280;21627;48.216;16.482;2024-02-14T10:28:23;100523.84;;;10.61;69.22
35519;BME280;21627;48.216;16.482;2024-02-14T10:31:02;100530.03;;;10.75;68.99
35519;BME280;21627;48.216;16.482;2024-02-14T10:33:32;100528.44;;;10.85;69.77
35519;BME280;21627;48.216;16.482;2024-02-14T10:35:59;100514.59;;;10.81;67.09
35519;BME280;21627;48.216;16.482;2024-02-14T10:38:32;100506.97;;;10.95;71.76
35519;BME280;21627;48.216;16.482;2024-02-14T10:41:01;100502.78;;;11.08;66.68
35519;BME280;21627;48.216;16.482;2024-02-14T10:43:29;100499.63;;;11.37;65.14
35519;BME280;21627;48.216;16.482;2024-02-14T10:45:59;100490.31;;;11.57;67.24
35519;BME280;21627;48.216;16.482;2024-02-14T10:48:28;100490.53;;;11.86;62.52
35519;BME280;21627;48.216;16.482;2024-02-14T10:51:02;100494.69;;;11.67;62.35
35519;BME280;21627;48.216;16.482;2024-02-14T10:53:33;100487.09;;;11.87;64.64
35519;BME280;21627;48.216;16.482;2024-02-14T10:56:01;100487.03;;;11.84;63.21
35519;BME280;21627;48.216;16.482;2024-02-14T10:58:30;100493.22;;;11.97;60.96
35519;BME280;21627;48.216;16.482;2024-02-14T11:00:58;100483.59;;;11.85;59.35
35519;BME280;21627;48.216;16.482;2024-02-14T11:03:26;100481.84;;;11.86;59.28
35519;BME280;21627;48.216;16.482;2024-02-14T11:06:02;100480.25;;;12.02;63.97
35519;BME280;21627;48.216;16.482;2024-02-14T11:08:32;100465.63;;;12.13;57.80
35519;BME280;21627;48.216;16.482;2024-02-14T11:11:00;100462.09;;;12.02;58.25
35519;BME280;21627;48.216;16.482;2024-02-14T11:13:31;100471.03;;;12.58;60.68
35519;BME280;21627;48.216;16.482;2024-02-14T11:16:03;100475.44;;;12.91;56.86
35519;BME280;21627;48.216;16.482;2024-02-14T11:18:31;100463.28;;;12.73;55.38
35519;BME280;21627;48.216;16.482;2024-02-14T11:21:16;100466.78;;;12.92;56.80
35519;BME280;21627;48.216;16.482;2024-02-14T11:23:53;100469.34;;;12.87;57.12
35519;BME280;21627;48.216;16.482;2024-02-14T11:26:21;100458.91;;;12.60;56.38
35519;BME280;21627;48.216;16.482;2024-02-14T11:29:00;100469.31;;;12.66;57.24
35519;BME280;21627;48.216;16.482;2024-02-14T11:31:33;100460.56;;;12.41;57.40
35519;BME280;21627;48.216;16.482;2024-02-14T11:34:05;100468.50;;;12.91;57.47
35519;BME280;21627;48.216;16.482;2024-02-14T11:36:33;100457.25;;;12.83;54.91
35519;BME280;21627;48.216;16.482;2024-02-14T11:39:03;100458.13;;;12.93;55.57
35519;BME280;21627;48.216;16.482;2024-02-14T11:41:35;100453.78;;;12.92;57.04
35519;BME280;21627;48.216;16.482;2024-02-14T11:44:06;100447.75;;;12.93;54.96
35519;BME280;21627;48.216;16.482;2024-02-14T11:46:35;100449.47;;;13.00;56.45
35519;BME280;21627;48.216;16.482;2024-02-14T11:49:04;100454.66;;;13.02;55.08
35519;BME280;21627;48.216;16.482;2024-02-14T11:51:34;100452.97;;;13.22;55.48
35519;BME280;21627;48.216;16.482;2024-02-14T11:54:04;100439.97;;;13.70;55.33
35519;BME280;21627;48.216;16.482;2024-02-14T11:56:36;100431.19;;;14.11;54.46
35519;BME280;21627;48.216;16.482;2024-02-14T11:59:07;100432.81;;;14.42;54.19
35519;BME280;21627;48.216;16.482;2024-02-14T12:01:37;100436.22;;;14.60;49.72
35519;BME280;21627;48.216;16.482;2024-02-14T12:04:09;100437.88;;;14.71;50.52
35519;BME280;21627;48.216;16.482;2024-02-14T12:06:38;100428.28;;;14.80;50.32
35519;BME280;21627;48.216;16.482;2024-02-14T12:09:08;100419.47;;;15.02;49.79
35519;BME280;21627;48.216;16.482;2024-02-14T12:11:39;100426.09;;;15.37;49.34
35519;BME280;21627;48.216;16.482;2024-02-14T12:14:09;100420.66;;;15.63;49.26
35519;BME280;21627;48.216;16.482;2024-02-14T12:16:37;100419.56;;;15.87;46.83
35519;BME280;21627;48.216;16.482;2024-02-14T12:21:39;100419.53;;;15.90;48.24
35519;BME280;21627;48.216;16.482;2024-02-14T12:24:10;100413.91;;;16.22;46.18
35519;BME280;21627;48.216;16.482;2024-02-14T12:26:41;100410.78;;;15.94;44.57
35519;BME280;21627;48.216;16.482;2024-02-14T12:29:11;100404.97;;;15.66;46.62
35519;BME280;21627;48.216;16.482;2024-02-14T12:31:40;100407.56;;;15.71;47.86
35519;BME280;21627;48.216;16.482;2024-02-14T12:34:11;100398.84;;;15.72;45.57
35519;BME280;21627;48.216;16.482;2024-02-14T12:36:39;100411.31;;;16.24;46.36
35519;BME280;21627;48.216;16.482;2024-02-14T12:39:07;100406.94;;;16.25;44.80
35519;BME280;21627;48.216;16.482;2024-02-14T12:41:36;100407.88;;;16.20;45.00
35519;BME280;21627;48.216;16.482;2024-02-14T12:44:06;100401.16;;;15.99;45.39
35519;BME280;21627;48.216;16.482;2024-02-14T12:46:34;100407.03;;;16.18;47.01
35519;BME280;21627;48.216;16.482;2024-02-14T12:49:01;100390.19;;;15.68;45.48